Aérodrome :
LOGIN :

S'inscrire | Disclaimer

   EN    FR    IT 

 










Légende :    VFR   VFR Marginal   IFR   IFR Intensif   IFR Très Intensif
Visi : 
Plafond : 
>= 8 km
>= 3000ft
5 à 8 km
1000 à 3000 ft
1500m à 5 km
500 à 1000 ft
800 à 1500m
200 à 500 ft
< 800m
< 200 ft
Symboles :   Orages  Brouillard  Fortes neiges  Fortes précipitations  Vent > 20 kt
SIGMETs :   Divers  Orages  Givrage  Turbulence  Onde Orograph.  Cendres Volcan.






- Altitude de l'aérodrome : 75 ft
- Code IATA : YEO


EGDY - RNAS Yeovilton

DERNIER METAR :
  • 161520Z 31011KT 9999 FEW030 23/15 Q1021 NOSIG RMK BLU BLU

METARs EXPIRÉS :
  • 161450Z 30011KT 9999 SCT028 22/15 Q1021 NOSIG RMK BLU BLU
  • 161421Z 30011KT 9999 BKN028 22/14 Q1021 NOSIG RMK BLU BLU
  • 161350Z 31009KT 9999 FEW020 BKN028 21/14 Q1021 NOSIG RMK BLU BLU
  • 161320Z 31010KT 9999 FEW020 BKN028 21/14 Q1021 NOSIG RMK BLU BLU
  • 161250Z 31009KT 9999 FEW020 BKN025 21/15 Q1022 NOSIG RMK BLU BLU

TAF TAF EGDY
Valide du 16 à 15h jusqu'au 17 à 00h UTC


161359Z 1615/1624 31010KT 9999 FEW020 BKN028
BECMG 1618/1620 SCT022
BECMG 1622/1624 SCT015



MET'MAP, la Météo Aéronautique d'un coup d'oeil ! - Copyright ORBIFLY Décembre 2007 - Disclaimer

ORBIFLY MET'MAP TEAM :

Programmation & Développement : Alexandra Zaïnal
Sur une idée originale de : Baudouin d'Aumeries
Assistance à la programmation : Marc-Olivier Méhu
Soutien technique & logistique : Manuel Goepfert

Contact : metmap@orbifly.com




SOURCES & CREDITS :

   NOAA